Aeroporto :







RITROVATECI SU...

 
LOGIN :

Iscrizione | Disclaimer

   EN    FR    IT 

 









Sommario :    VFR   VFR Marginale   IFR   IFR Intensivo   IFR Molto Intensivo
Visibilità : 
Base nubi : 
>= 8 km
>= 3000ft
5 / 8 km
1000 / 3000 ft
1500m / 5 km
500 / 1000 ft
800 / 1500m
200 / 500 ft
< 800m
< 200 ft
Simboli :   Temporali  Nebbia  Neve Forte  Precipitazioni Forti  Vento > 20 kt







- Altitudine del aeroporto : 234 ft
- Codice IATA : PBG


KPBG - Plattsburgh International

ULTIMO METAR :
  • 222053Z AUTO 02016G23KT 10SM CLR 19/05 A3012 RMK AO2 SLP201 T01940050 56014

METARs OBSOLETI :
  • 221953Z AUTO 04011KT 10SM CLR 19/08 A3013 RMK AO2 SLP204 T01890078
  • 221853Z AUTO 04013KT 10SM CLR 18/07 A3015 RMK AO2 SLP209 T01830072

TAF KPBG
Valido dal 22 a 18 ore il 23 a 18 ore UTC


221721Z 2218/2318 04012G20KT P6SM SKC
FM230000 35011KT P6SM FEW180
FM231200 01006KT P6SM BKN090
FM231600 VRB04KT P6SM SCT120
FIR KZBW / America del Nord



MetMap, La meteo Aeronautica in un colpo d'occhio ! - Copyright ORBIFLY Dicembre 2007 - Disclaimer

ORBIFLY MET'MAP TEAM :

Programmazione e sviluppo : Alexandra Zaïnal
Concezione e sviluppo : Baudouin d'Aumeries
Co-Programmazione e sviluppo : Marc-Olivier Méhu
Supporto tecnico e logistico : Manuel Goepfert
Aiuto per la traduzione : Arnaldo La Scala

Contatto : metmap@orbifly.com




FONTI E CREDITI :

   NOAA